FNR weather

Funter Bay Seaplane Base
Funter Bay, Alaska, United States

Public forecast

Using degrees Fahrenheit for public forecast. Weather courtesy of forecast.io.

METAR (pilot weather report)

Closest report is Juneau International Airport, 11.8 nm (21.9 km) ENE. Retrieved 2019/05/25 19:53 UTC (32 minutes ago):

PAJN 251953Z 21004KT 10SM FEW200 16/06 A3014

TAF (pilot weather forecast)

Closest forecast is Juneau International Airport, 11.8 nm (21.9 km) ENE. Retrieved 2019/05/25 18:34 UTC (2 hours ago):

TAF PAJN 251732Z 2518/2618 25011KT P6SM FEW070